createdAt,value
2022-12-01T00:02:18.490Z,98.79
2022-12-01T00:04:45.237Z,98.51
2022-12-01T00:07:11.896Z,98.43
2022-12-01T00:09:57.186Z,98.60
2022-12-01T00:12:23.972Z,98.51
2022-12-01T00:14:55.105Z,98.77
2022-12-01T00:17:22.213Z,98.51
2022-12-01T00:19:49.065Z,98.51
2022-12-01T00:22:15.917Z,98.26
2022-12-01T00:24:42.566Z,98.21
2022-12-01T00:27:09.223Z,98.05
2022-12-01T00:29:35.885Z,98.21
2022-12-01T00:32:06.451Z,98.17
2022-12-01T00:34:33.119Z,98.13
2022-12-01T00:37:00.543Z,98.20
2022-12-01T00:39:27.280Z,98.38
2022-12-01T00:41:54.133Z,98.48
2022-12-01T00:44:20.785Z,98.32
2022-12-01T00:46:47.445Z,98.52
2022-12-01T00:49:14.518Z,98.48
2022-12-01T00:51:41.460Z,98.33
2022-12-01T00:54:08.139Z,98.43
2022-12-01T00:56:34.792Z,98.29
2022-12-01T00:59:01.444Z,98.05
2022-12-01T01:01:28.166Z,98.32
2022-12-01T01:03:54.861Z,98.13
2022-12-01T01:06:21.536Z,98.64
2022-12-01T01:08:48.168Z,98.16
2022-12-01T01:11:14.827Z,97.91
2022-12-01T01:13:41.600Z,97.77
2022-12-01T01:16:14.275Z,97.64
2022-12-01T01:18:42.060Z,97.93
2022-12-01T01:21:11.924Z,97.69
2022-12-01T01:23:38.641Z,97.40
2022-12-01T01:26:14.936Z,97.15
2022-12-01T01:28:42.072Z,97.33
2022-12-01T01:31:10.965Z,97.25
2022-12-01T01:33:38.242Z,97.49
2022-12-01T01:36:06.343Z,98.57
2022-12-01T01:38:34.195Z,97.93
2022-12-01T01:41:01.710Z,97.68
2022-12-01T01:43:53.164Z,97.44
2022-12-01T01:46:28.562Z,97.79
2022-12-01T01:48:57.065Z,97.71
2022-12-01T01:51:34.092Z,97.90
2022-12-01T01:54:24.619Z,98.06
2022-12-01T01:56:52.402Z,98.28
2022-12-01T01:59:24.613Z,98.97
2022-12-01T02:01:59.896Z,98.93
2022-12-01T02:04:27.099Z,98.58
2022-12-01T02:06:53.864Z,98.75
2022-12-01T02:09:20.682Z,98.52
2022-12-01T02:12:12.123Z,98.52
2022-12-01T02:14:57.247Z,98.64
2022-12-01T02:17:45.516Z,98.42
2022-12-01T02:20:40.909Z,98.43
2022-12-01T02:23:29.255Z,98.72
2022-12-01T02:25:58.715Z,98.84
2022-12-01T02:28:34.336Z,98.99
2022-12-01T02:31:22.846Z,98.95
2022-12-01T02:33:59.411Z,99.00
2022-12-01T02:36:28.999Z,99.05
2022-12-01T02:39:04.234Z,99.12
2022-12-01T02:41:36.792Z,99.20
2022-12-01T02:44:17.097Z,99.15
2022-12-01T02:47:01.268Z,99.04
2022-12-01T02:49:35.702Z,99.33
2022-12-01T02:52:05.586Z,99.30
2022-12-01T02:54:33.555Z,99.19
2022-12-01T02:57:00.366Z,98.99
2022-12-01T02:59:27.037Z,99.13
2022-12-01T03:02:17.152Z,99.08
2022-12-01T03:04:52.865Z,98.90
2022-12-01T03:07:33.418Z,99.04
2022-12-01T03:10:40.794Z,98.95
2022-12-01T03:13:15.963Z,98.92
2022-12-01T03:16:05.816Z,98.97
2022-12-01T03:18:54.201Z,98.87
2022-12-01T03:21:35.854Z,98.89
2022-12-01T03:24:06.759Z,98.93
2022-12-01T03:26:35.577Z,98.70
2022-12-01T03:29:22.495Z,98.84
2022-12-01T03:31:53.450Z,98.90
2022-12-01T03:34:34.612Z,98.65
2022-12-01T03:37:05.422Z,98.67
2022-12-01T03:39:33.571Z,98.91
2022-12-01T03:42:05.854Z,98.65
2022-12-01T03:44:41.787Z,98.56
2022-12-01T03:47:15.823Z,98.66
2022-12-01T03:49:43.226Z,98.51
2022-12-01T03:52:37.062Z,98.58
2022-12-01T03:55:29.617Z,98.74
2022-12-01T03:58:11.396Z,98.64
2022-12-01T04:00:38.660Z,98.76
2022-12-01T04:03:05.776Z,98.83
2022-12-01T04:05:34.312Z,98.62
2022-12-01T04:08:01.555Z,98.56
2022-12-01T04:10:28.252Z,98.59
2022-12-01T04:12:59.378Z,98.46
2022-12-01T04:15:27.301Z,98.74
2022-12-01T04:17:54.038Z,98.63
2022-12-01T04:20:21.654Z,98.45
2022-12-01T04:22:48.742Z,98.39
2022-12-01T04:25:15.463Z,98.42
2022-12-01T04:27:42.228Z,98.71
2022-12-01T04:30:09.711Z,98.62
2022-12-01T04:32:40.527Z,98.44
2022-12-01T04:35:08.810Z,98.43
2022-12-01T04:37:35.565Z,98.54
2022-12-01T04:40:02.227Z,98.68
2022-12-01T04:42:28.902Z,98.52
2022-12-01T04:44:55.659Z,98.47
2022-12-01T04:47:22.332Z,98.53
2022-12-01T04:49:49.396Z,98.56
2022-12-01T04:52:16.276Z,98.60
2022-12-01T04:54:43.287Z,98.95
2022-12-01T04:57:09.987Z,98.42
2022-12-01T04:59:36.716Z,98.43
2022-12-01T05:02:04.337Z,98.36
2022-12-01T05:04:32.675Z,98.61
2022-12-01T05:06:59.435Z,98.36
2022-12-01T05:09:26.103Z,98.41
2022-12-01T05:11:52.765Z,98.53
2022-12-01T05:14:19.494Z,98.89
2022-12-01T05:16:46.215Z,98.55
2022-12-01T05:19:31.447Z,98.66
2022-12-01T05:21:58.148Z,98.65
2022-12-01T05:24:24.835Z,98.64
2022-12-01T05:26:51.648Z,98.67
2022-12-01T05:29:18.363Z,98.42
2022-12-01T05:31:46.412Z,98.58
2022-12-01T05:34:13.418Z,98.42
2022-12-01T05:36:40.108Z,98.43
2022-12-01T05:39:06.775Z,98.57
2022-12-01T05:41:33.501Z,98.24
2022-12-01T05:44:00.255Z,98.21
2022-12-01T05:46:27.004Z,98.25
2022-12-01T05:48:53.747Z,98.00
2022-12-01T05:51:20.521Z,98.14
2022-12-01T05:53:47.693Z,98.30
2022-12-01T05:56:14.427Z,98.37
2022-12-01T05:58:41.086Z,98.05
2022-12-01T06:01:08.407Z,98.03
2022-12-01T06:03:35.280Z,98.14
2022-12-01T06:06:02.273Z,97.99
2022-12-01T06:08:29.027Z,98.32
2022-12-01T06:10:55.685Z,98.29
2022-12-01T06:13:22.555Z,98.11
2022-12-01T06:15:57.572Z,98.13
2022-12-01T06:18:25.292Z,97.70
2022-12-01T06:20:52.363Z,97.69
2022-12-01T06:23:19.228Z,98.10
2022-12-01T06:25:45.922Z,98.29
2022-12-01T06:28:12.683Z,98.67
2022-12-01T06:30:39.419Z,98.42
2022-12-01T06:33:06.587Z,98.44
2022-12-01T06:35:33.480Z,98.45
2022-12-01T06:38:00.282Z,98.48
2022-12-01T06:40:27.733Z,98.45
2022-12-01T06:42:54.451Z,98.27
2022-12-01T06:45:21.209Z,98.36
2022-12-01T06:47:48.628Z,98.38
2022-12-01T06:50:15.420Z,98.38
2022-12-01T06:52:42.133Z,98.32
2022-12-01T06:55:09.180Z,98.42
2022-12-01T06:57:36.064Z,98.47
2022-12-01T07:00:04.414Z,98.63
2022-12-01T07:02:31.562Z,98.44
2022-12-01T07:04:58.254Z,98.36
2022-12-01T07:07:24.935Z,98.46
2022-12-01T07:09:51.898Z,98.70
2022-12-01T07:12:18.866Z,98.96
2022-12-01T07:14:45.517Z,98.59
2022-12-01T07:17:12.209Z,98.65
2022-12-01T07:19:39.357Z,98.71
2022-12-01T07:22:06.063Z,98.90
2022-12-01T07:24:32.730Z,99.17
2022-12-01T07:26:59.485Z,98.68
2022-12-01T07:29:26.128Z,98.93
2022-12-01T07:31:52.864Z,98.62
2022-12-01T07:34:19.564Z,98.66
2022-12-01T07:36:46.206Z,98.55
2022-12-01T07:39:12.968Z,98.69
2022-12-01T07:41:39.666Z,98.49
2022-12-01T07:44:06.320Z,98.58
2022-12-01T07:46:33.207Z,98.64
2022-12-01T07:49:00.503Z,98.66
2022-12-01T07:51:27.455Z,98.91
2022-12-01T07:53:54.955Z,98.75
2022-12-01T07:56:22.990Z,99.00
2022-12-01T07:58:49.708Z,98.97
2022-12-01T08:01:19.623Z,98.99
2022-12-01T08:03:52.085Z,98.69
2022-12-01T08:06:19.611Z,98.63
2022-12-01T08:08:46.731Z,98.78
2022-12-01T08:11:17.963Z,98.45
2022-12-01T08:13:45.029Z,98.90
2022-12-01T08:16:17.060Z,98.92
2022-12-01T08:18:44.723Z,98.85
2022-12-01T08:21:13.433Z,98.76
2022-12-01T08:23:41.707Z,98.79
2022-12-01T08:26:12.909Z,98.92
2022-12-01T08:28:40.109Z,99.08
2022-12-01T08:31:10.696Z,98.78
2022-12-01T08:33:37.502Z,98.82
2022-12-01T08:36:05.580Z,98.71
2022-12-01T08:38:32.627Z,99.16
2022-12-01T08:41:03.099Z,99.10
2022-12-01T08:43:55.841Z,99.16
2022-12-01T08:46:16.824Z,98.74
2022-12-01T08:48:43.803Z,98.69
2022-12-01T08:51:13.578Z,98.65
2022-12-01T08:53:45.513Z,98.64
2022-12-01T08:56:18.951Z,98.99
2022-12-01T08:58:45.910Z,99.07
2022-12-01T09:01:15.167Z,99.03
2022-12-01T09:03:42.963Z,98.84
2022-12-01T09:06:20.778Z,98.77
2022-12-01T09:08:47.763Z,98.72
2022-12-01T09:11:18.977Z,98.79
2022-12-01T09:13:52.938Z,98.73
2022-12-01T09:16:21.502Z,98.64
2022-12-01T09:18:48.760Z,98.81
2022-12-01T09:21:27.093Z,98.87
2022-12-01T09:23:54.427Z,98.62
2022-12-01T09:26:21.407Z,98.86
2022-12-01T09:28:50.090Z,99.08
2022-12-01T09:31:18.595Z,98.99
2022-12-01T09:33:45.581Z,98.77
2022-12-01T09:36:12.473Z,98.67
2022-12-01T09:38:39.931Z,98.74
2022-12-01T09:41:18.845Z,98.64
2022-12-01T09:43:49.499Z,98.59
2022-12-01T09:46:24.558Z,98.65
2022-12-01T09:48:53.527Z,98.66
2022-12-01T09:51:22.426Z,98.97
2022-12-01T09:53:54.182Z,98.75
2022-12-01T09:56:26.320Z,98.80
2022-12-01T09:58:57.474Z,98.69
2022-12-01T10:01:33.661Z,98.35
2022-12-01T10:04:07.911Z,98.24
2022-12-01T10:06:59.627Z,98.13
2022-12-01T10:09:52.472Z,98.44
2022-12-01T10:12:23.894Z,98.51
2022-12-01T10:14:50.883Z,98.67
2022-12-01T10:17:31.630Z,98.30
2022-12-01T10:20:04.480Z,98.37
2022-12-01T10:22:54.519Z,98.44
2022-12-01T10:25:29.073Z,98.11
2022-12-01T10:28:11.187Z,98.06
2022-12-01T10:30:49.225Z,98.28
2022-12-01T10:33:21.889Z,97.54
2022-12-01T10:35:48.648Z,97.67
2022-12-01T10:38:27.703Z,97.83
2022-12-01T10:40:55.571Z,97.95
2022-12-01T10:43:32.992Z,97.71
2022-12-01T10:46:01.760Z,97.34
2022-12-01T10:48:29.277Z,97.27
2022-12-01T10:50:57.555Z,97.53
2022-12-01T10:53:24.294Z,97.33
2022-12-01T10:55:58.273Z,97.53
2022-12-01T10:58:24.919Z,97.31
2022-12-01T11:01:01.690Z,97.46
2022-12-01T11:03:32.388Z,97.15
2022-12-01T11:06:01.244Z,96.76
2022-12-01T11:08:41.215Z,96.74
2022-12-01T11:11:26.298Z,96.64
2022-12-01T11:13:54.311Z,96.22
2022-12-01T11:16:43.444Z,95.90
2022-12-01T11:19:25.141Z,96.30
2022-12-01T11:22:18.705Z,96.04
2022-12-01T11:24:54.490Z,95.93
2022-12-01T11:27:24.482Z,95.12
2022-12-01T11:30:04.930Z,95.04
2022-12-01T11:32:35.475Z,94.73
2022-12-01T11:35:04.541Z,94.18
2022-12-01T11:37:36.043Z,94.57
2022-12-01T11:40:09.460Z,94.98
2022-12-01T11:42:37.508Z,94.48
2022-12-01T11:45:28.855Z,94.96
2022-12-01T11:48:12.838Z,94.48
2022-12-01T11:50:42.257Z,93.65
2022-12-01T11:53:29.287Z,92.79
2022-12-01T11:56:18.107Z,92.36
2022-12-01T11:58:47.411Z,93.29
2022-12-01T12:01:32.467Z,93.18
2022-12-01T12:04:19.665Z,93.28
2022-12-01T12:07:17.673Z,93.25
2022-12-01T12:09:53.484Z,93.06
2022-12-01T12:12:58.673Z,93.37
2022-12-01T12:15:28.409Z,93.27
2022-12-01T12:17:55.136Z,92.74
2022-12-01T12:20:39.482Z,91.66
2022-12-01T12:23:35.468Z,92.61
2022-12-01T12:26:11.193Z,92.31
2022-12-01T12:28:49.723Z,92.02
2022-12-01T12:31:22.548Z,92.25
2022-12-01T12:34:06.940Z,92.33
2022-12-01T12:36:56.478Z,92.52
2022-12-01T12:39:32.498Z,91.64
2022-12-01T12:42:04.000Z,92.33
2022-12-01T12:44:39.560Z,92.42
2022-12-01T12:47:35.327Z,92.84
2022-12-01T12:50:16.044Z,92.22
2022-12-01T12:52:49.066Z,91.38
2022-12-01T12:55:30.799Z,91.84
2022-12-01T12:58:10.924Z,92.15
2022-12-01T13:00:44.149Z,92.29
2022-12-01T13:03:44.334Z,91.73
2022-12-01T13:06:16.312Z,91.70
2022-12-01T13:08:53.138Z,91.85
2022-12-01T13:11:30.856Z,91.99
2022-12-01T13:14:02.204Z,92.08
2022-12-01T13:16:36.407Z,91.93
2022-12-01T13:19:10.763Z,92.28
2022-12-01T13:21:41.516Z,92.27
2022-12-01T13:24:12.372Z,91.28
2022-12-01T13:26:39.931Z,91.81
2022-12-01T13:29:07.871Z,91.95
2022-12-01T13:31:44.108Z,91.99
2022-12-01T13:34:19.224Z,91.34
2022-12-01T13:36:53.980Z,90.96
2022-12-01T13:39:25.091Z,91.55
2022-12-01T13:42:00.574Z,90.78
2022-12-01T13:44:40.904Z,91.10
2022-12-01T13:47:10.764Z,91.19
2022-12-01T13:49:47.362Z,91.56
2022-12-01T13:52:23.580Z,91.79
2022-12-01T13:55:08.318Z,91.79
2022-12-01T13:57:39.020Z,91.62
2022-12-01T14:00:31.936Z,91.77
2022-12-01T14:03:20.201Z,91.76
2022-12-01T14:05:53.411Z,91.93
2022-12-01T14:08:26.177Z,92.00
2022-12-01T14:11:03.609Z,92.08
2022-12-01T14:13:31.761Z,91.91
2022-12-01T14:16:00.870Z,92.13
2022-12-01T14:18:40.389Z,92.02
2022-12-01T14:21:10.521Z,92.18
2022-12-01T14:23:40.148Z,91.96
2022-12-01T14:26:19.307Z,92.25
2022-12-01T14:28:55.272Z,91.47
2022-12-01T14:31:34.769Z,91.69
2022-12-01T14:34:10.367Z,91.55
2022-12-01T14:36:52.700Z,91.72
2022-12-01T14:39:25.181Z,91.39
2022-12-01T14:42:43.944Z,91.92
2022-12-01T14:45:14.092Z,91.85
2022-12-01T14:47:49.902Z,91.81
2022-12-01T14:50:34.675Z,92.12
2022-12-01T14:53:14.472Z,92.11
2022-12-01T14:55:43.731Z,92.02
2022-12-01T14:58:20.332Z,92.15
2022-12-01T15:01:13.604Z,92.15
2022-12-01T15:03:54.672Z,92.41
2022-12-01T15:06:24.691Z,92.13
2022-12-01T15:12:02.465Z,92.29
2022-12-01T15:14:38.570Z,92.21
2022-12-01T15:17:07.092Z,92.02
2022-12-01T15:19:38.258Z,92.26
2022-12-01T15:22:08.084Z,92.31
2022-12-01T15:24:34.918Z,92.40
2022-12-01T15:27:04.040Z,92.65
2022-12-01T15:29:44.292Z,92.53
2022-12-01T15:32:16.312Z,92.82
2022-12-01T15:34:45.198Z,92.79
2022-12-01T15:37:14.839Z,92.65
2022-12-01T15:39:46.757Z,92.94
2022-12-01T15:42:25.467Z,92.62
2022-12-01T15:45:21.434Z,92.66
2022-12-01T15:47:49.048Z,92.48
2022-12-01T15:50:33.614Z,92.54
2022-12-01T15:53:03.639Z,92.68
2022-12-01T15:55:32.144Z,92.60
2022-12-01T15:57:59.972Z,92.66
2022-12-01T16:00:27.034Z,92.56
2022-12-01T16:02:56.063Z,92.67
2022-12-01T16:05:33.086Z,92.75
2022-12-01T16:08:17.886Z,92.92
2022-12-01T16:10:45.232Z,92.66
2022-12-01T16:13:35.271Z,92.59
2022-12-01T16:16:23.161Z,92.82
2022-12-01T16:18:59.978Z,92.94
2022-12-01T16:21:27.296Z,92.83
2022-12-01T16:24:02.371Z,92.65
2022-12-01T16:26:29.715Z,92.75
2022-12-01T16:28:57.105Z,92.86
2022-12-01T16:31:25.909Z,92.57
2022-12-01T16:34:13.856Z,92.56
2022-12-01T16:36:50.257Z,92.47
2022-12-01T16:39:17.038Z,92.76
2022-12-01T16:41:44.977Z,92.26
2022-12-01T16:44:28.113Z,92.65
2022-12-01T16:46:55.995Z,92.97
2022-12-01T16:49:23.082Z,92.88
2022-12-01T16:51:55.933Z,93.15
2022-12-01T16:54:23.773Z,93.14
2022-12-01T16:56:51.273Z,92.93
2022-12-01T16:59:17.953Z,93.01
2022-12-01T17:01:44.667Z,93.19
2022-12-01T17:04:11.685Z,93.26
2022-12-01T17:06:38.660Z,93.56
2022-12-01T17:09:05.456Z,93.36
2022-12-01T17:11:32.527Z,93.18
2022-12-01T17:13:59.280Z,93.31
2022-12-01T17:16:26.188Z,93.33
2022-12-01T17:18:52.916Z,93.21
2022-12-01T17:21:19.582Z,93.23
2022-12-01T17:23:46.524Z,93.45
2022-12-01T17:26:15.515Z,93.57
2022-12-01T17:28:42.259Z,93.13
2022-12-01T17:31:09.487Z,93.00
2022-12-01T17:33:36.776Z,93.07
2022-12-01T17:36:21.920Z,93.37
2022-12-01T17:38:49.034Z,93.49
2022-12-01T17:41:22.143Z,93.40
2022-12-01T17:43:49.172Z,93.75
2022-12-01T17:46:16.009Z,93.71
2022-12-01T17:48:45.087Z,93.64
2022-12-01T17:51:13.467Z,93.53
2022-12-01T17:53:40.527Z,93.68
2022-12-01T17:56:12.095Z,93.63
2022-12-01T17:58:39.254Z,93.75
2022-12-01T18:01:07.428Z,93.60
2022-12-01T18:03:34.086Z,93.88
2022-12-01T18:06:02.408Z,93.54
2022-12-01T18:08:30.296Z,93.49
2022-12-01T18:11:02.395Z,93.42
2022-12-01T18:13:29.374Z,93.44
2022-12-01T18:15:56.115Z,93.65
2022-12-01T18:18:22.836Z,93.61
2022-12-01T18:20:49.513Z,93.90
2022-12-01T18:23:16.176Z,93.71
2022-12-01T18:25:42.869Z,93.39
2022-12-01T18:28:11.252Z,93.57
2022-12-01T18:30:38.893Z,93.42
2022-12-01T18:33:08.808Z,93.38
2022-12-01T18:35:35.480Z,93.52
2022-12-01T18:38:02.194Z,93.41
2022-12-01T18:40:28.885Z,93.80
2022-12-01T18:42:55.606Z,93.70
2022-12-01T18:45:22.278Z,93.61
2022-12-01T18:47:49.109Z,94.11
2022-12-01T18:50:15.863Z,93.93
2022-12-01T18:52:42.783Z,94.12
2022-12-01T18:55:09.818Z,94.06
2022-12-01T18:57:36.526Z,93.97
2022-12-01T19:00:06.216Z,93.84
2022-12-01T19:02:32.969Z,93.94
2022-12-01T19:05:00.003Z,94.01
2022-12-01T19:07:29.722Z,93.98
2022-12-01T19:09:56.988Z,93.87
2022-12-01T19:12:23.655Z,94.10
2022-12-01T19:14:53.138Z,94.01
2022-12-01T19:17:20.159Z,94.05
2022-12-01T19:19:46.963Z,94.09
2022-12-01T19:22:13.631Z,94.03
2022-12-01T19:24:40.295Z,94.05
2022-12-01T19:27:07.004Z,93.97
2022-12-01T19:29:33.852Z,94.14
2022-12-01T19:32:00.804Z,94.00
2022-12-01T19:34:27.640Z,94.15
2022-12-01T19:36:54.565Z,94.11
2022-12-01T19:39:21.430Z,94.12
2022-12-01T19:41:48.384Z,94.35
2022-12-01T19:44:15.086Z,94.47
2022-12-01T19:46:41.904Z,94.29
2022-12-01T19:49:10.383Z,94.35
2022-12-01T19:51:39.127Z,93.99
2022-12-01T19:54:08.541Z,94.13
2022-12-01T19:56:35.226Z,94.18
2022-12-01T19:59:02.007Z,94.58
2022-12-01T20:01:29.114Z,94.48
2022-12-01T20:03:56.177Z,94.58
2022-12-01T20:06:28.325Z,94.56
2022-12-01T20:08:56.988Z,94.71
2022-12-01T20:11:24.264Z,94.46
2022-12-01T20:13:51.779Z,94.59
2022-12-01T20:16:21.743Z,94.57
2022-12-01T20:18:49.022Z,94.46
2022-12-01T20:21:19.503Z,94.59
2022-12-01T20:23:55.495Z,94.49
2022-12-01T20:26:26.150Z,94.66
2022-12-01T20:29:04.927Z,94.88
2022-12-01T20:31:33.057Z,94.93
2022-12-01T20:34:02.075Z,95.10
2022-12-01T20:36:29.071Z,94.15
2022-12-01T20:38:55.838Z,94.64
2022-12-01T20:41:23.062Z,94.84
2022-12-01T20:43:49.997Z,94.87
2022-12-01T20:46:17.166Z,94.66
2022-12-01T20:48:44.399Z,94.76
2022-12-01T20:51:13.126Z,94.89
2022-12-01T20:53:40.172Z,94.73
2022-12-01T20:56:09.037Z,94.81
2022-12-01T20:58:37.927Z,94.71
2022-12-01T21:01:13.079Z,94.31
2022-12-01T21:03:41.204Z,94.16
2022-12-01T21:06:08.508Z,94.53
2022-12-01T21:08:37.823Z,94.74
2022-12-01T21:11:13.656Z,94.39
2022-12-01T21:13:43.203Z,94.50
2022-12-01T21:16:16.044Z,94.92
2022-12-01T21:18:49.768Z,95.31
2022-12-01T21:21:24.836Z,95.42
2022-12-01T21:24:00.748Z,95.78
2022-12-01T21:26:27.467Z,95.37
2022-12-01T21:28:55.952Z,95.38
2022-12-01T21:31:22.680Z,95.43
2022-12-01T21:33:49.840Z,95.47
2022-12-01T21:36:17.565Z,96.08
2022-12-01T21:38:45.162Z,95.31
2022-12-01T21:41:25.339Z,95.37
2022-12-01T21:43:52.373Z,95.65
2022-12-01T21:46:19.151Z,95.69
2022-12-01T21:48:48.678Z,95.38
2022-12-01T21:51:19.364Z,95.37
2022-12-01T21:53:47.578Z,95.42
2022-12-01T21:56:27.639Z,95.81
2022-12-01T21:58:58.504Z,95.70
2022-12-01T22:01:30.426Z,95.68
2022-12-01T22:04:02.066Z,95.96
2022-12-01T22:06:40.942Z,96.08
2022-12-01T22:09:33.287Z,95.90
2022-12-01T22:12:11.168Z,96.04
2022-12-01T22:14:38.111Z,95.83
2022-12-01T22:17:08.045Z,95.79
2022-12-01T22:19:38.421Z,95.83
2022-12-01T22:22:11.133Z,95.61
2022-12-01T22:24:40.817Z,95.79
2022-12-01T22:27:25.776Z,95.76
2022-12-01T22:29:57.463Z,95.86
2022-12-01T22:32:29.390Z,95.89
2022-12-01T22:34:59.144Z,95.69
2022-12-01T22:37:35.684Z,95.71
2022-12-01T22:40:02.495Z,95.77
2022-12-01T22:42:29.312Z,95.77
2022-12-01T22:44:59.903Z,95.75
2022-12-01T22:47:28.984Z,95.82
2022-12-01T22:49:56.065Z,95.89
2022-12-01T22:52:28.536Z,95.86
2022-12-01T22:54:55.323Z,96.23
2022-12-01T22:57:33.451Z,96.34
2022-12-01T23:00:17.806Z,96.07
2022-12-01T23:02:44.774Z,95.86
2022-12-01T23:05:19.071Z,95.88
2022-12-01T23:07:46.098Z,95.81
2022-12-01T23:10:20.251Z,95.40
2022-12-01T23:12:49.367Z,95.69
2022-12-01T23:15:34.035Z,95.84
2022-12-01T23:18:16.112Z,95.54
2022-12-01T23:20:44.418Z,95.41
2022-12-01T23:23:16.099Z,95.50
2022-12-01T23:25:44.451Z,96.00
2022-12-01T23:28:12.288Z,95.93
2022-12-01T23:30:41.282Z,95.70
2022-12-01T23:33:22.967Z,95.89
2022-12-01T23:36:14.874Z,96.19
2022-12-01T23:38:43.512Z,96.35
2022-12-01T23:41:25.451Z,96.29
2022-12-01T23:44:01.853Z,96.41
2022-12-01T23:46:28.668Z,96.34
2022-12-01T23:48:56.784Z,96.81
2022-12-01T23:51:24.650Z,96.68
2022-12-01T23:53:52.759Z,96.76
2022-12-01T23:56:21.582Z,96.23
2022-12-01T23:58:48.314Z,96.28
